Time;durP1;ratioP1;P1;durP2;ratioP2;P2;SDS_P1;SDS_P2;PMS_P1;PMS_P2;Temp;Humidity;BMP_temperature;BMP_pressure;BME280_temperature;BME280_humidity;BME280_pressure;Samples;Min_cycle;Max_cycle;Signal;HPM_P1;HPM_P2
2021/01/17 00:01:08;;;;;;;29.10;16.50;;;-0.90;99.90;;;;;;484107;245;27513;-70
2021/01/17 00:03:09;;;;;;;28.20;17.27;;;-0.90;99.90;;;;;;484095;245;27417;-69
2021/01/17 00:05:10;;;;;;;28.45;17.10;;;-1.00;99.90;;;;;;484069;245;27448;-69
2021/01/17 00:07:12;;;;;;;27.40;16.80;;;-1.00;99.90;;;;;;484014;245;28631;-70
2021/01/17 00:09:13;;;;;;;31.40;18.10;;;-1.00;99.90;;;;;;484002;245;29112;-68
2021/01/17 00:11:14;;;;;;;27.08;16.65;;;-1.00;99.90;;;;;;483943;245;27444;-70
2021/01/17 00:13:15;;;;;;;29.37;16.80;;;-1.00;99.90;;;;;;483973;245;27397;-68
2021/01/17 00:15:17;;;;;;;27.48;16.12;;;-1.00;99.90;;;;;;483924;245;27439;-69
2021/01/17 00:17:18;;;;;;;27.70;15.82;;;-1.10;99.90;;;;;;483928;245;27512;-68
2021/01/17 00:19:19;;;;;;;30.85;17.90;;;-1.00;99.90;;;;;;483948;245;27885;-68
2021/01/17 00:21:20;;;;;;;28.33;16.95;;;-1.00;99.90;;;;;;483897;245;28958;-69
2021/01/17 00:23:22;;;;;;;27.67;16.75;;;-1.00;99.90;;;;;;483917;245;27420;-68
2021/01/17 00:25:23;;;;;;;27.20;16.15;;;-1.00;99.90;;;;;;483938;245;27564;-69
2021/01/17 00:27:24;;;;;;;29.90;17.35;;;-1.00;99.90;;;;;;483937;245;27460;-69
2021/01/17 00:29:26;;;;;;;29.80;17.40;;;-1.00;99.90;;;;;;483788;245;27464;-69
2021/01/17 00:31:27;;;;;;;27.75;16.62;;;-1.00;99.90;;;;;;483907;245;27515;-69
2021/01/17 00:33:28;;;;;;;28.52;16.73;;;-1.00;99.90;;;;;;483973;245;28024;-70
2021/01/17 00:35:29;;;;;;;26.85;15.45;;;-1.00;99.90;;;;;;483949;245;27461;-69
2021/01/17 00:37:31;;;;;;;26.15;16.80;;;-1.00;99.90;;;;;;484028;245;27409;-69
2021/01/17 00:39:32;;;;;;;25.70;15.95;;;-1.00;99.90;;;;;;484027;245;27418;-69
2021/01/17 00:41:33;;;;;;;24.83;15.40;;;-1.00;99.90;;;;;;483982;245;27469;-69
2021/01/17 00:43:34;;;;;;;26.65;15.05;;;-1.00;99.90;;;;;;483997;245;27457;-68
2021/01/17 00:45:36;;;;;;;23.83;14.52;;;-1.00;99.90;;;;;;483933;245;27888;-69
2021/01/17 00:47:37;;;;;;;25.58;14.55;;;-1.00;99.90;;;;;;483951;245;27917;-68
2021/01/17 00:49:38;;;;;;;26.17;16.08;;;-1.00;99.90;;;;;;483889;245;27504;-69
2021/01/17 00:51:41;;;;;;;27.17;16.35;;;-0.90;99.90;;;;;;483893;245;27433;-70
2021/01/17 00:53:41;;;;;;;23.95;14.85;;;-1.00;99.90;;;;;;483693;245;27448;-68
2021/01/17 00:55:42;;;;;;;25.95;15.73;;;-1.00;99.90;;;;;;483931;245;27509;-69
2021/01/17 00:57:43;;;;;;;24.70;14.55;;;-1.00;99.90;;;;;;483904;245;27992;-69
2021/01/17 00:59:44;;;;;;;27.13;16.00;;;-1.00;99.90;;;;;;483959;245;29068;-70
2021/01/17 01:01:46;;;;;;;24.87;14.68;;;-1.00;99.90;;;;;;483918;245;27480;-69
2021/01/17 01:03:47;;;;;;;27.55;16.48;;;-1.00;99.90;;;;;;483917;245;27496;-68
2021/01/17 01:05:48;;;;;;;29.50;16.48;;;-1.00;99.90;;;;;;483913;245;27409;-70
2021/01/17 01:07:49;;;;;;;28.15;15.85;;;-1.00;99.90;;;;;;484058;245;27445;-68
2021/01/17 01:09:51;;;;;;;22.70;14.25;;;-1.00;99.90;;;;;;484108;245;27921;-69
2021/01/17 01:11:52;;;;;;;25.60;16.45;;;-1.00;99.90;;;;;;484081;245;27938;-68
2021/01/17 01:13:53;;;;;;;23.60;14.63;;;-0.90;99.90;;;;;;484121;245;27447;-69
2021/01/17 01:15:55;;;;;;;26.92;15.00;;;-0.90;99.90;;;;;;484115;245;27449;-68
2021/01/17 01:17:56;;;;;;;23.73;14.93;;;-0.90;99.90;;;;;;484112;244;27477;-68
2021/01/17 01:19:57;;;;;;;24.77;15.20;;;-0.90;99.90;;;;;;484054;245;27447;-69
2021/01/17 01:21:58;;;;;;;19.62;13.05;;;-0.90;99.90;;;;;;483987;245;27465;-68
2021/01/17 01:24:00;;;;;;;23.45;15.07;;;-0.90;99.90;;;;;;484015;245;27896;-68
2021/01/17 01:26:01;;;;;;;25.45;14.60;;;-0.90;99.90;;;;;;483963;245;27562;-71
2021/01/17 01:28:02;;;;;;;24.08;14.82;;;-0.90;99.90;;;;;;483899;245;27404;-69
2021/01/17 01:30:03;;;;;;;23.67;14.30;;;-0.80;99.90;;;;;;483794;245;27476;-69
2021/01/17 01:32:05;;;;;;;25.92;16.58;;;-0.80;99.90;;;;;;483837;245;27398;-69
2021/01/17 01:34:06;;;;;;;20.08;13.05;;;-0.80;99.90;;;;;;483862;245;27509;-69
2021/01/17 01:36:07;;;;;;;22.90;13.73;;;-0.80;99.90;;;;;;483888;245;28124;-68
2021/01/17 01:38:08;;;;;;;25.27;15.32;;;-0.80;99.90;;;;;;483872;245;27837;-68
2021/01/17 01:40:10;;;;;;;23.15;15.02;;;-0.80;99.90;;;;;;483864;245;27432;-69
2021/01/17 01:42:11;;;;;;;22.00;13.48;;;-0.80;99.90;;;;;;483883;245;27455;-74
2021/01/17 01:44:12;;;;;;;21.87;13.90;;;-0.80;99.90;;;;;;483852;245;27441;-68
2021/01/17 01:46:14;;;;;;;20.50;12.95;;;-0.80;99.90;;;;;;483860;245;27548;-68
2021/01/17 01:48:15;;;;;;;21.87;13.75;;;-0.80;99.90;;;;;;483900;245;28015;-69
2021/01/17 01:50:16;;;;;;;21.80;13.23;;;-0.80;99.90;;;;;;483921;245;27935;-70
2021/01/17 01:52:17;;;;;;;22.87;14.07;;;-0.80;99.90;;;;;;483947;245;27493;-69
2021/01/17 01:54:18;;;;;;;21.17;13.52;;;-0.70;99.90;;;;;;483960;245;27448;-69
2021/01/17 01:56:20;;;;;;;20.02;13.20;;;-0.80;99.90;;;;;;484025;245;27405;-68
2021/01/17 01:58:21;;;;;;;20.80;12.70;;;-0.80;99.90;;;;;;484005;245;27513;-69
2021/01/17 02:00:22;;;;;;;21.80;14.45;;;-0.70;99.90;;;;;;483928;245;27525;-69
2021/01/17 02:02:23;;;;;;;22.77;13.55;;;-0.70;99.90;;;;;;483936;245;27917;-69
2021/01/17 02:04:25;;;;;;;23.05;13.77;;;-0.70;99.90;;;;;;483937;245;27441;-70
2021/01/17 02:06:26;;;;;;;22.40;13.32;;;-0.70;99.90;;;;;;483914;245;27556;-68
2021/01/17 02:08:27;;;;;;;20.10;13.13;;;-0.70;99.90;;;;;;483973;245;27547;-70
2021/01/17 02:10:29;;;;;;;22.00;13.60;;;-0.70;99.90;;;;;;483945;245;27394;-68
2021/01/17 02:12:30;;;;;;;22.37;12.55;;;-0.70;99.90;;;;;;483919;245;27437;-68
2021/01/17 02:14:31;;;;;;;22.20;14.13;;;-0.70;99.90;;;;;;483922;245;27945;-69
2021/01/17 02:16:32;;;;;;;21.80;13.93;;;-0.70;99.90;;;;;;483959;245;28008;-68
2021/01/17 02:18:34;;;;;;;26.62;14.43;;;-0.70;99.90;;;;;;483963;245;27437;-69
2021/01/17 02:20:35;;;;;;;23.15;13.90;;;-0.70;99.90;;;;;;483928;245;27405;-69
2021/01/17 02:22:36;;;;;;;21.98;13.77;;;-0.70;99.90;;;;;;484007;245;27457;-69
2021/01/17 02:24:37;;;;;;;24.40;14.40;;;-0.70;99.90;;;;;;483922;245;27452;-71
2021/01/17 02:26:39;;;;;;;21.73;14.30;;;-0.70;99.90;;;;;;483894;245;27905;-69
2021/01/17 02:28:40;;;;;;;22.20;14.15;;;-0.70;99.90;;;;;;484139;245;29111;-69
2021/01/17 02:30:45;;;;;;;24.08;14.13;;;-0.70;99.90;;;;;;484089;245;27468;-68
2021/01/17 02:32:42;;;;;;;21.80;13.35;;;-0.70;99.90;;;;;;483795;245;27441;-69
2021/01/17 02:34:44;;;;;;;21.87;13.18;;;-0.70;99.90;;;;;;483971;245;27437;-70
2021/01/17 02:36:45;;;;;;;23.12;14.52;;;-0.70;99.90;;;;;;483968;245;27412;-69
2021/01/17 02:38:46;;;;;;;21.27;13.60;;;-0.70;99.90;;;;;;483965;245;27448;-70
2021/01/17 02:40:47;;;;;;;24.02;14.55;;;-0.70;99.90;;;;;;483922;245;28979;-68
2021/01/17 02:42:49;;;;;;;22.83;14.73;;;-0.70;99.90;;;;;;483975;245;27536;-69
2021/01/17 02:44:50;;;;;;;24.50;15.57;;;-0.80;99.90;;;;;;483915;245;27437;-69
2021/01/17 02:46:51;;;;;;;23.65;14.50;;;-0.80;99.90;;;;;;483932;245;27481;-68
2021/01/17 02:48:52;;;;;;;21.90;13.75;;;-0.70;99.90;;;;;;483907;245;27496;-70
2021/01/17 02:50:54;;;;;;;25.37;14.82;;;-0.70;99.90;;;;;;483940;245;27460;-70
2021/01/17 02:52:55;;;;;;;22.37;14.35;;;-0.70;99.90;;;;;;483955;245;27925;-69
2021/01/17 02:54:56;;;;;;;22.65;13.98;;;-0.60;99.90;;;;;;483932;245;28013;-69
2021/01/17 02:56:57;;;;;;;23.10;14.50;;;-0.70;99.90;;;;;;483953;245;27543;-69
2021/01/17 02:58:59;;;;;;;24.45;14.07;;;-0.70;99.90;;;;;;483968;245;27636;-68
2021/01/17 03:01:00;;;;;;;23.35;14.40;;;-0.70;99.90;;;;;;483919;245;27544;-70
2021/01/17 03:03:01;;;;;;;23.60;14.98;;;-0.70;99.90;;;;;;483951;245;27513;-69
2021/01/17 03:05:03;;;;;;;23.85;14.50;;;-0.60;99.90;;;;;;483942;245;27980;-69
2021/01/17 03:07:04;;;;;;;22.48;14.13;;;-0.60;99.90;;;;;;483930;245;28646;-68
2021/01/17 03:09:05;;;;;;;23.62;14.38;;;-0.60;99.90;;;;;;483963;245;27549;-69
2021/01/17 03:11:06;;;;;;;24.15;14.35;;;-0.70;99.90;;;;;;483906;245;27472;-69
2021/01/17 03:13:08;;;;;;;22.33;14.18;;;-0.70;99.90;;;;;;483919;245;27502;-68
2021/01/17 03:15:09;;;;;;;22.95;14.98;;;-0.70;99.90;;;;;;483878;245;27512;-69
2021/01/17 03:17:11;;;;;;;24.00;15.05;;;-0.60;99.90;;;;;;483906;245;27905;-69
2021/01/17 03:19:11;;;;;;;25.42;15.48;;;-0.60;99.90;;;;;;483957;245;29121;-68
2021/01/17 03:21:13;;;;;;;21.52;13.57;;;-0.60;99.90;;;;;;483900;245;27526;-69
2021/01/17 03:23:14;;;;;;;22.80;14.30;;;-0.60;99.90;;;;;;483970;245;27441;-69
2021/01/17 03:25:15;;;;;;;25.23;14.87;;;-0.60;99.90;;;;;;484042;245;27489;-69
2021/01/17 03:27:16;;;;;;;23.40;15.10;;;-0.60;99.90;;;;;;484022;245;27453;-69
2021/01/17 03:29:18;;;;;;;22.27;13.95;;;-0.60;99.90;;;;;;483951;245;27540;-69
2021/01/17 03:31:19;;;;;;;23.48;13.95;;;-0.60;99.90;;;;;;483852;245;27897;-69
2021/01/17 03:33:20;;;;;;;24.00;13.90;;;-0.60;99.90;;;;;;484006;245;27441;-70
2021/01/17 03:35:21;;;;;;;22.50;14.05;;;-0.70;99.90;;;;;;483987;245;27414;-68
2021/01/17 03:37:23;;;;;;;23.55;14.73;;;-0.70;99.90;;;;;;483999;245;27515;-69
2021/01/17 03:39:24;;;;;;;23.45;14.23;;;-0.60;99.90;;;;;;483970;245;27909;-69
2021/01/17 03:41:25;;;;;;;24.00;14.50;;;-0.60;99.90;;;;;;483988;245;27499;-68
2021/01/17 03:43:26;;;;;;;23.48;14.32;;;-0.60;99.90;;;;;;484131;245;27912;-70
2021/01/17 03:45:28;;;;;;;25.42;15.85;;;-0.60;99.90;;;;;;484111;245;27870;-68
2021/01/17 03:47:29;;;;;;;23.25;14.77;;;-0.60;99.90;;;;;;483812;245;27440;-69
2021/01/17 03:49:30;;;;;;;23.33;13.60;;;-0.60;99.90;;;;;;483728;245;27497;-68
2021/01/17 03:51:31;;;;;;;27.80;15.40;;;-0.60;99.90;;;;;;483995;245;27401;-69
2021/01/17 03:53:33;;;;;;;22.62;14.13;;;-0.70;99.90;;;;;;484094;245;27464;-70
2021/01/17 03:55:34;;;;;;;24.77;14.57;;;-0.60;99.90;;;;;;484089;245;27988;-68
2021/01/17 03:57:35;;;;;;;24.30;14.65;;;-0.60;99.90;;;;;;484027;245;27912;-69
2021/01/17 03:59:37;;;;;;;22.55;14.00;;;-0.70;99.90;;;;;;483973;245;27568;-69
2021/01/17 04:01:38;;;;;;;20.90;13.62;;;-0.60;99.90;;;;;;483887;245;27432;-69
2021/01/17 04:03:39;;;;;;;24.12;15.23;;;-0.60;99.90;;;;;;483926;245;27512;-70
2021/01/17 04:05:40;;;;;;;24.50;15.20;;;-0.60;99.90;;;;;;483957;245;27465;-68
2021/01/17 04:07:42;;;;;;;24.00;15.27;;;-0.60;99.90;;;;;;483922;245;27928;-70
2021/01/17 04:09:43;;;;;;;24.83;15.15;;;-0.60;99.90;;;;;;483972;245;27912;-70
2021/01/17 04:11:44;;;;;;;28.00;14.63;;;-0.60;99.90;;;;;;483890;245;27437;-68
2021/01/17 04:13:45;;;;;;;23.10;14.82;;;-0.60;99.90;;;;;;483954;245;27449;-70
2021/01/17 04:15:47;;;;;;;24.65;14.95;;;-0.60;99.90;;;;;;483940;245;27428;-68
2021/01/17 04:17:48;;;;;;;24.80;15.13;;;-0.60;99.90;;;;;;483917;245;27461;-68
2021/01/17 04:19:49;;;;;;;20.92;14.07;;;-0.60;99.90;;;;;;483917;245;27460;-70
2021/01/17 04:21:50;;;;;;;23.75;15.57;;;-0.60;99.90;;;;;;483841;245;27869;-69
2021/01/17 04:23:52;;;;;;;22.75;14.75;;;-0.70;99.90;;;;;;483968;245;27527;-69
2021/01/17 04:25:53;;;;;;;26.33;16.35;;;-0.60;99.90;;;;;;483965;245;27504;-70
2021/01/17 04:27:54;;;;;;;25.62;15.23;;;-0.60;99.90;;;;;;483931;245;27635;-68
2021/01/17 04:29:55;;;;;;;26.50;16.12;;;-0.60;99.90;;;;;;483933;245;27448;-69
2021/01/17 04:31:58;;;;;;;22.62;14.35;;;-0.60;99.90;;;;;;483874;245;27441;-68
2021/01/17 04:33:58;;;;;;;23.08;14.77;;;-0.60;99.90;;;;;;483871;245;28004;-70
2021/01/17 04:35:59;;;;;;;25.83;15.48;;;-0.60;99.90;;;;;;483941;245;29119;-70
2021/01/17 04:38:00;;;;;;;23.98;16.05;;;-0.60;99.90;;;;;;483953;245;27432;-69
2021/01/17 04:40:02;;;;;;;24.98;14.40;;;-0.60;99.90;;;;;;483927;245;27429;-71
2021/01/17 04:42:03;;;;;;;26.30;15.70;;;-0.60;99.90;;;;;;483958;245;27851;-69
2021/01/17 04:44:04;;;;;;;25.65;14.60;;;-0.60;99.90;;;;;;484035;245;27451;-68
2021/01/17 04:46:07;;;;;;;27.87;16.20;;;-0.60;99.90;;;;;;484059;245;27889;-68
2021/01/17 04:48:07;;;;;;;25.15;15.77;;;-0.60;99.90;;;;;;483897;245;28023;-69
2021/01/17 04:50:08;;;;;;;22.58;14.63;;;-0.60;99.90;;;;;;483864;245;27487;-68
2021/01/17 04:52:09;;;;;;;26.02;15.45;;;-0.60;99.90;;;;;;483954;245;27445;-69
2021/01/17 04:54:11;;;;;;;24.30;15.18;;;-0.50;99.90;;;;;;483970;245;27409;-69
2021/01/17 04:56:12;;;;;;;23.25;14.93;;;-0.60;99.90;;;;;;483917;245;28794;-68
2021/01/17 04:58:13;;;;;;;27.15;15.00;;;-0.60;99.90;;;;;;483965;245;27430;-69
2021/01/17 05:00:14;;;;;;;25.98;15.50;;;-0.60;99.90;;;;;;483909;245;28701;-68
2021/01/17 05:02:16;;;;;;;24.77;15.27;;;-0.50;99.90;;;;;;483979;245;27441;-69
2021/01/17 05:04:17;;;;;;;23.52;15.15;;;-0.50;99.90;;;;;;483898;242;27444;-69
2021/01/17 05:06:18;;;;;;;24.58;14.13;;;-0.50;99.90;;;;;;483839;245;27617;-68
2021/01/17 05:08:19;;;;;;;24.80;14.87;;;-0.50;99.90;;;;;;483958;245;27810;-71
2021/01/17 05:10:21;;;;;;;28.60;14.77;;;-0.50;99.90;;;;;;483964;245;27405;-69
2021/01/17 05:12:22;;;;;;;30.80;16.25;;;-0.50;99.90;;;;;;484051;245;27889;-68
2021/01/17 05:14:23;;;;;;;23.67;14.80;;;-0.50;99.90;;;;;;484090;245;28593;-68
2021/01/17 05:16:24;;;;;;;26.80;14.95;;;-0.50;99.90;;;;;;484089;245;27433;-69
2021/01/17 05:18:26;;;;;;;22.67;15.20;;;-0.50;99.90;;;;;;484101;245;27437;-69
2021/01/17 05:20:27;;;;;;;22.73;15.23;;;-0.60;99.90;;;;;;484088;245;27412;-68
2021/01/17 05:22:28;;;;;;;24.75;14.55;;;-0.60;99.90;;;;;;484083;245;27783;-69
2021/01/17 05:24:29;;;;;;;30.02;14.70;;;-0.50;99.90;;;;;;484106;245;28009;-71
2021/01/17 05:26:31;;;;;;;22.37;13.80;;;-0.50;99.90;;;;;;484086;245;27911;-69
2021/01/17 05:28:32;;;;;;;24.50;14.30;;;-0.50;99.90;;;;;;484084;245;27465;-70
2021/01/17 05:30:33;;;;;;;22.45;12.68;;;-0.50;99.90;;;;;;483995;245;27515;-69
2021/01/17 05:32:34;;;;;;;23.23;13.85;;;-0.50;99.90;;;;;;483988;245;27468;-69
2021/01/17 05:34:36;;;;;;;23.45;14.18;;;-0.50;99.90;;;;;;483974;245;27437;-70
2021/01/17 05:36:37;;;;;;;21.75;14.55;;;-0.50;99.90;;;;;;483921;245;27925;-69
2021/01/17 05:38:38;;;;;;;23.45;13.82;;;-0.50;99.90;;;;;;483956;245;27932;-68
2021/01/17 05:40:40;;;;;;;24.95;15.27;;;-0.50;99.90;;;;;;483918;245;27408;-69
2021/01/17 05:42:41;;;;;;;29.75;15.27;;;-0.50;99.90;;;;;;483931;245;27520;-70
2021/01/17 05:44:42;;;;;;;27.02;14.93;;;-0.50;99.90;;;;;;483933;245;27540;-69
2021/01/17 05:46:43;;;;;;;22.58;13.40;;;-0.50;99.90;;;;;;483887;245;27539;-69
2021/01/17 05:48:45;;;;;;;19.73;13.77;;;-0.50;99.90;;;;;;483914;244;27472;-69
2021/01/17 05:50:46;;;;;;;23.35;15.00;;;-0.50;99.90;;;;;;483874;245;27964;-71
2021/01/17 05:52:47;;;;;;;23.15;14.68;;;-0.50;99.90;;;;;;483921;245;27927;-70
2021/01/17 05:54:48;;;;;;;24.08;14.87;;;-0.40;99.90;;;;;;483919;245;27535;-69
2021/01/17 05:56:50;;;;;;;22.92;14.20;;;-0.40;99.90;;;;;;483920;245;27437;-69
2021/01/17 05:58:51;;;;;;;22.35;14.23;;;-0.40;99.90;;;;;;483930;245;27558;-69
2021/01/17 06:00:52;;;;;;;25.75;15.20;;;-0.40;99.90;;;;;;483869;245;27496;-70
2021/01/17 06:02:53;;;;;;;23.92;15.05;;;-0.40;99.90;;;;;;483927;245;27913;-70
2021/01/17 06:04:55;;;;;;;22.50;15.15;;;-0.40;99.90;;;;;;483901;245;29036;-69
2021/01/17 06:06:56;;;;;;;22.77;13.85;;;-0.40;99.90;;;;;;483925;245;27495;-69
2021/01/17 06:08:57;;;;;;;22.00;14.23;;;-0.40;99.90;;;;;;483940;245;27536;-69
2021/01/17 06:10:58;;;;;;;25.55;14.68;;;-0.40;99.90;;;;;;483882;245;27520;-69
2021/01/17 06:13:00;;;;;;;22.42;14.15;;;-0.40;99.90;;;;;;483938;245;27441;-70
2021/01/17 06:15:01;;;;;;;23.55;15.07;;;-0.40;99.90;;;;;;483897;245;27884;-69
2021/01/17 06:17:02;;;;;;;26.40;15.52;;;-0.40;99.90;;;;;;483931;245;28099;-71
2021/01/17 06:19:03;;;;;;;25.70;15.48;;;-0.40;99.90;;;;;;483979;245;27421;-69
2021/01/17 06:21:05;;;;;;;24.73;15.77;;;-0.40;99.90;;;;;;483959;244;27447;-69
2021/01/17 06:23:06;;;;;;;25.83;15.20;;;-0.40;99.90;;;;;;483902;245;27480;-70
2021/01/17 06:25:07;;;;;;;27.58;15.45;;;-0.40;99.90;;;;;;483896;245;27437;-69
2021/01/17 06:27:08;;;;;;;25.92;15.43;;;-0.40;99.90;;;;;;483950;245;27528;-70
2021/01/17 06:29:10;;;;;;;26.80;15.15;;;-0.40;99.90;;;;;;483969;245;27885;-69
2021/01/17 06:31:11;;;;;;;22.40;14.05;;;-0.40;99.90;;;;;;483993;245;27457;-69
2021/01/17 06:33:12;;;;;;;26.52;15.38;;;-0.40;99.90;;;;;;484035;245;27505;-69
2021/01/17 06:35:14;;;;;;;27.90;15.95;;;-0.40;99.90;;;;;;484132;245;27390;-69
2021/01/17 06:37:15;;;;;;;25.73;14.32;;;-0.40;99.90;;;;;;484152;245;27477;-71
2021/01/17 06:39:16;;;;;;;24.17;15.00;;;-0.40;99.90;;;;;;484109;245;27462;-69
2021/01/17 06:41:17;;;;;;;26.25;14.90;;;-0.40;99.90;;;;;;484051;245;27988;-70
2021/01/17 06:43:19;;;;;;;26.87;14.57;;;-0.40;99.90;;;;;;484079;245;27455;-71
2021/01/17 06:45:20;;;;;;;21.90;13.85;;;-0.40;99.90;;;;;;484032;245;27421;-68
2021/01/17 06:47:21;;;;;;;23.75;13.82;;;-0.40;99.90;;;;;;483687;245;27478;-70
2021/01/17 06:49:22;;;;;;;23.42;13.77;;;-0.40;99.90;;;;;;483905;245;27401;-69
2021/01/17 06:51:24;;;;;;;27.30;16.15;;;-0.40;99.90;;;;;;484017;245;27457;-69
2021/01/17 06:53:25;;;;;;;23.45;15.15;;;-0.30;99.90;;;;;;484074;245;28075;-71
2021/01/17 06:55:26;;;;;;;25.08;14.60;;;-0.30;99.90;;;;;;484077;245;27863;-69
2021/01/17 06:57:27;;;;;;;27.25;15.20;;;-0.30;99.90;;;;;;484033;245;27425;-70
2021/01/17 06:59:29;;;;;;;26.77;15.88;;;-0.30;99.90;;;;;;483972;245;27449;-69
2021/01/17 07:01:30;;;;;;;21.48;13.95;;;-0.30;99.90;;;;;;483911;245;27441;-69
2021/01/17 07:03:31;;;;;;;28.00;16.08;;;-0.30;99.90;;;;;;483912;245;27440;-70
2021/01/17 07:05:32;;;;;;;25.73;14.90;;;-0.30;99.90;;;;;;483943;245;27941;-69
2021/01/17 07:07:34;;;;;;;23.85;14.18;;;-0.30;99.90;;;;;;483961;245;28027;-69
2021/01/17 07:09:35;;;;;;;25.90;14.45;;;-0.30;99.90;;;;;;483939;245;27543;-71
2021/01/17 07:11:36;;;;;;;27.15;17.30;;;-0.30;99.90;;;;;;483894;245;27453;-69
2021/01/17 07:13:37;;;;;;;26.70;17.50;;;-0.30;99.90;;;;;;483975;245;27765;-70
2021/01/17 07:15:39;;;;;;;27.70;16.55;;;-0.30;99.90;;;;;;483945;245;27490;-69
2021/01/17 07:17:40;;;;;;;31.08;18.98;;;-0.30;99.90;;;;;;483944;245;27440;-69
2021/01/17 07:19:41;;;;;;;29.15;18.70;;;-0.30;99.90;;;;;;483942;245;27936;-69
2021/01/17 07:21:42;;;;;;;26.55;16.10;;;-0.40;99.90;;;;;;483767;245;27452;-69
2021/01/17 07:23:44;;;;;;;24.95;15.25;;;-0.30;99.90;;;;;;483949;245;27465;-69
2021/01/17 07:25:45;;;;;;;27.17;18.10;;;-0.40;99.90;;;;;;483946;245;27512;-69
2021/01/17 07:27:46;;;;;;;32.58;20.33;;;-0.40;99.90;;;;;;483915;245;27449;-70
2021/01/17 07:29:48;;;;;;;27.87;17.80;;;-0.40;99.90;;;;;;483909;245;27453;-69
2021/01/17 07:31:49;;;;;;;28.85;17.08;;;-0.30;99.90;;;;;;483880;245;27896;-69
2021/01/17 07:33:50;;;;;;;29.50;17.05;;;-0.30;99.90;;;;;;483927;245;27923;-69
2021/01/17 07:35:51;;;;;;;25.52;15.80;;;-0.30;99.90;;;;;;483941;245;27449;-70
2021/01/17 07:37:53;;;;;;;30.02;16.48;;;-0.30;99.90;;;;;;483952;245;27436;-69
2021/01/17 07:39:54;;;;;;;28.67;15.82;;;-0.20;99.90;;;;;;483954;245;27507;-69
2021/01/17 07:41:55;;;;;;;26.45;14.70;;;-0.30;99.90;;;;;;483929;245;27461;-69
2021/01/17 07:43:56;;;;;;;29.63;15.95;;;-0.20;99.90;;;;;;483958;245;27957;-69
2021/01/17 07:45:58;;;;;;;23.33;14.25;;;-0.20;99.90;;;;;;483968;245;27911;-69
2021/01/17 07:47:59;;;;;;;27.17;15.88;;;-0.20;99.90;;;;;;483977;245;27421;-69
2021/01/17 07:50:00;;;;;;;26.17;14.05;;;-0.10;99.90;;;;;;484031;245;27421;-69
2021/01/17 07:52:01;;;;;;;26.50;13.80;;;-0.10;99.90;;;;;;484029;245;27772;-71
2021/01/17 07:54:03;;;;;;;28.20;15.85;;;-0.20;99.90;;;;;;483984;245;27405;-69
2021/01/17 07:56:04;;;;;;;30.55;15.60;;;-0.10;99.90;;;;;;483953;245;27445;-69
2021/01/17 07:58:05;;;;;;;26.02;14.32;;;-0.10;99.90;;;;;;483935;245;28073;-71
2021/01/17 08:00:06;;;;;;;28.23;15.05;;;-0.10;99.90;;;;;;483908;245;27441;-69
2021/01/17 08:02:08;;;;;;;25.02;15.50;;;-0.10;99.90;;;;;;484019;245;27433;-71
2021/01/17 08:04:18;;;;;;;35.72;14.93;;;-0.10;99.90;;;;;;483999;245;27394;-69
2021/01/17 08:06:10;;;;;;;29.92;15.98;;;-0.10;99.90;;;;;;483779;245;27444;-69
2021/01/17 08:08:11;;;;;;;28.20;15.40;;;-0.10;99.90;;;;;;483965;245;27444;-70
2021/01/17 08:10:13;;;;;;;27.20;16.08;;;-0.10;99.90;;;;;;483938;245;27890;-69
2021/01/17 08:12:14;;;;;;;26.87;14.05;;;0.00;99.90;;;;;;483955;245;27936;-70
2021/01/17 08:14:15;;;;;;;32.10;15.75;;;-0.10;99.90;;;;;;483972;245;27497;-69
2021/01/17 08:16:16;;;;;;;26.30;15.13;;;-0.10;99.90;;;;;;483958;245;27535;-69
2021/01/17 08:18:18;;;;;;;28.92;15.63;;;-0.10;99.90;;;;;;484014;245;27527;-70
2021/01/17 08:20:19;;;;;;;32.65;16.75;;;0.00;99.90;;;;;;483939;245;27437;-69
2021/01/17 08:22:20;;;;;;;36.28;16.87;;;0.00;99.90;;;;;;483998;245;28013;-69
2021/01/17 08:24:22;;;;;;;32.88;17.95;;;0.10;99.90;;;;;;484064;245;28436;-69
2021/01/17 08:26:23;;;;;;;37.55;23.30;;;0.10;99.90;;;;;;484068;245;27960;-69
2021/01/17 08:28:24;;;;;;;36.55;23.58;;;0.10;99.90;;;;;;483910;245;27418;-71
2021/01/17 08:30:25;;;;;;;34.63;19.58;;;0.10;99.90;;;;;;484051;245;27445;-69
2021/01/17 08:32:27;;;;;;;32.63;16.77;;;0.10;99.90;;;;;;484038;245;27453;-70
2021/01/17 08:34:28;;;;;;;31.67;16.30;;;0.10;99.90;;;;;;483976;245;27501;-69
2021/01/17 08:36:29;;;;;;;33.83;17.37;;;0.10;99.90;;;;;;483925;245;27441;-69
2021/01/17 08:38:30;;;;;;;30.55;16.87;;;0.00;99.90;;;;;;483958;245;28044;-69
2021/01/17 08:40:32;;;;;;;33.20;17.98;;;0.00;99.90;;;;;;483924;245;28940;-69
2021/01/17 08:42:33;;;;;;;31.17;16.90;;;0.10;99.90;;;;;;483962;245;27433;-70
2021/01/17 08:44:34;;;;;;;31.45;16.65;;;0.20;99.90;;;;;;483969;245;27512;-70
2021/01/17 08:46:35;;;;;;;34.90;17.08;;;0.20;99.90;;;;;;483948;245;27437;-69
2021/01/17 08:48:37;;;;;;;32.38;16.83;;;0.20;99.90;;;;;;483925;245;27562;-69
2021/01/17 08:50:38;;;;;;;30.37;17.05;;;0.30;99.90;;;;;;483888;245;27449;-69
2021/01/17 08:52:39;;;;;;;29.05;15.38;;;0.30;99.90;;;;;;483941;245;27441;-70
2021/01/17 08:54:40;;;;;;;28.17;16.00;;;0.40;99.90;;;;;;483949;245;28073;-69
2021/01/17 08:56:42;;;;;;;29.65;15.18;;;0.40;99.90;;;;;;483912;245;28016;-68
2021/01/17 08:58:43;;;;;;;29.98;15.40;;;0.30;99.90;;;;;;483948;245;27462;-69
2021/01/17 09:00:44;;;;;;;29.63;15.43;;;0.30;99.90;;;;;;483906;245;27539;-69
2021/01/17 09:02:45;;;;;;;30.55;15.77;;;0.30;99.90;;;;;;483953;245;27535;-71
2021/01/17 09:04:47;;;;;;;33.70;16.75;;;0.30;99.90;;;;;;483959;245;27524;-70
2021/01/17 09:06:49;;;;;;;36.97;17.75;;;0.40;99.90;;;;;;483971;245;27504;-70
2021/01/17 09:08:49;;;;;;;35.65;16.60;;;0.40;99.90;;;;;;483962;245;27526;-70
2021/01/17 09:10:50;;;;;;;33.90;16.90;;;0.50;99.90;;;;;;483920;245;27947;-71
2021/01/17 09:12:52;;;;;;;27.37;15.10;;;0.40;99.90;;;;;;483966;245;27996;-69
2021/01/17 09:14:53;;;;;;;30.40;15.75;;;0.30;99.90;;;;;;483967;245;27497;-70
2021/01/17 09:16:54;;;;;;;28.05;15.23;;;0.40;99.90;;;;;;483943;245;27449;-69
2021/01/17 09:18:55;;;;;;;31.55;18.08;;;0.40;99.90;;;;;;483997;245;27444;-69
2021/01/17 09:20:57;;;;;;;28.25;14.00;;;0.40;99.90;;;;;;483952;245;27520;-69
2021/01/17 09:23:07;;;;;;;27.55;14.63;;;0.30;99.90;;;;;;484059;245;27540;-71
2021/01/17 09:24:59;;;;;;;26.48;13.95;;;0.30;99.90;;;;;;483780;245;28024;-69
2021/01/17 09:27:00;;;;;;;27.02;14.57;;;0.30;99.90;;;;;;483952;245;28072;-70
2021/01/17 09:29:02;;;;;;;27.00;14.45;;;0.30;99.90;;;;;;483966;245;27481;-69
2021/01/17 09:31:03;;;;;;;31.30;16.92;;;0.40;99.90;;;;;;483932;245;27472;-70
2021/01/17 09:33:04;;;;;;;29.02;15.30;;;0.40;99.90;;;;;;483956;245;27531;-69
2021/01/17 09:35:05;;;;;;;23.35;13.20;;;0.50;99.90;;;;;;483972;245;27428;-69
2021/01/17 09:37:07;;;;;;;25.25;13.68;;;0.50;99.90;;;;;;484042;245;27433;-70
2021/01/17 09:39:08;;;;;;;27.67;14.25;;;0.50;99.90;;;;;;484073;245;27492;-69
2021/01/17 09:41:09;;;;;;;23.23;13.23;;;0.50;99.90;;;;;;484028;245;27893;-69
2021/01/17 09:43:11;;;;;;;24.02;14.00;;;0.60;99.90;;;;;;484103;245;29424;-69
2021/01/17 09:45:12;;;;;;;20.40;12.60;;;0.70;99.90;;;;;;484149;245;27401;-69
2021/01/17 09:47:13;;;;;;;24.80;14.20;;;0.70;99.90;;;;;;484127;242;27531;-70
2021/01/17 09:49:14;;;;;;;25.70;14.50;;;0.80;99.90;;;;;;484122;245;27484;-70
2021/01/17 09:51:16;;;;;;;23.65;13.80;;;0.80;99.90;;;;;;484075;245;27564;-69
2021/01/17 09:53:17;;;;;;;22.45;12.98;;;0.80;99.90;;;;;;484124;245;27445;-72
2021/01/17 09:55:18;;;;;;;23.87;14.30;;;0.80;99.90;;;;;;484074;245;27418;-69
2021/01/17 09:57:19;;;;;;;20.42;12.27;;;0.90;99.90;;;;;;483967;245;27951;-69
2021/01/17 09:59:22;;;;;;;26.80;13.90;;;0.90;99.90;;;;;;483573;245;27881;-69
2021/01/17 10:01:22;;;;;;;23.15;13.65;;;0.90;99.90;;;;;;483796;245;27524;-70
2021/01/17 10:03:23;;;;;;;24.50;13.57;;;0.90;99.90;;;;;;484053;245;27509;-71
2021/01/17 10:05:24;;;;;;;24.37;12.82;;;0.90;99.90;;;;;;484027;245;27398;-69
2021/01/17 10:07:26;;;;;;;22.95;13.32;;;1.00;99.90;;;;;;483880;242;27565;-70
2021/01/17 10:09:27;;;;;;;26.90;14.48;;;1.00;99.90;;;;;;483808;245;27412;-69
2021/01/17 10:11:28;;;;;;;26.40;13.93;;;1.00;99.90;;;;;;483787;245;27897;-70
2021/01/17 10:13:29;;;;;;;26.48;14.55;;;1.10;99.90;;;;;;483779;245;28080;-70
2021/01/17 10:15:31;;;;;;;21.08;12.65;;;1.10;99.90;;;;;;483924;245;27854;-69